Time;durP1;ratioP1;P1;durP2;ratioP2;P2;SDS_P1;SDS_P2;PMS_P1;PMS_P2;Temp;Humidity;BMP_temperature;BMP_pressure;BME280_temperature;BME280_humidity;BME280_pressure;Samples;Min_cycle;Max_cycle;Signal;HPM_P1;HPM_P2
2024/04/11 00:00:32;;;;;;;0.05;0.05;;;24.20;44.70;;;;;;5414162;26;20245;-54
2024/04/11 00:03:04;;;;;;;0.00;0.00;;;24.20;44.60;;;;;;5398419;26;20266;-56
2024/04/11 00:05:38;;;;;;;0.00;0.00;;;24.20;44.60;;;;;;5379587;26;20752;-57
2024/04/11 00:08:10;;;;;;;0.00;0.00;;;24.20;44.60;;;;;;5380011;26;20218;-57
2024/04/11 00:10:40;;;;;;;0.00;0.00;;;24.20;44.50;;;;;;5379302;26;20250;-52
2024/04/11 00:13:12;;;;;;;0.00;0.00;;;24.20;44.40;;;;;;5379399;26;20230;-58
2024/04/11 00:15:41;;;;;;;0.00;0.00;;;24.30;44.40;;;;;;5392404;26;20225;-57
2024/04/11 00:18:14;;;;;;;0.00;0.00;;;24.20;44.40;;;;;;5409245;26;20233;-57
2024/04/11 00:20:46;;;;;;;0.00;0.00;;;24.20;44.50;;;;;;5409713;26;20232;-57
2024/04/11 00:23:18;;;;;;;0.00;0.00;;;24.20;44.50;;;;;;5409909;26;20225;-55
2024/04/11 00:25:55;;;;;;;0.00;0.00;;;24.30;44.50;;;;;;5409644;26;20248;-57
2024/04/11 00:28:28;;;;;;;0.00;0.00;;;24.30;44.30;;;;;;5408796;26;20229;-55
2024/04/11 00:30:58;;;;;;;0.00;0.00;;;24.30;44.30;;;;;;5410514;26;20308;-58
2024/04/11 00:33:30;;;;;;;0.00;0.00;;;24.30;44.20;;;;;;5396992;26;20226;-56
2024/04/11 00:36:04;;;;;;;0.00;0.00;;;24.30;44.10;;;;;;5409705;26;20740;-56
2024/04/11 00:38:39;;;;;;;0.00;0.00;;;24.40;44.00;;;;;;5408851;26;20350;-57
2024/04/11 00:41:10;;;;;;;0.00;0.00;;;24.40;44.00;;;;;;5431701;26;20340;-57
2024/04/11 00:43:42;;;;;;;0.10;0.10;;;24.40;44.00;;;;;;5410273;26;20612;-56
2024/04/11 00:46:11;;;;;;;0.00;0.00;;;24.40;44.00;;;;;;5437563;26;20224;-58
2024/04/11 00:48:44;;;;;;;0.00;0.00;;;24.40;43.90;;;;;;5444893;26;20208;-58
2024/04/11 00:51:16;;;;;;;0.10;0.10;;;24.50;44.10;;;;;;5444174;26;20267;-52
2024/04/11 00:53:51;;;;;;;0.00;0.00;;;24.50;44.10;;;;;;5438877;26;20245;-57
2024/04/11 00:56:20;;;;;;;0.00;0.00;;;24.50;44.20;;;;;;5408107;26;20233;-57
2024/04/11 00:58:53;;;;;;;0.00;0.00;;;24.50;44.20;;;;;;5409923;26;20744;-57
2024/04/11 01:01:22;;;;;;;0.00;0.00;;;24.50;44.20;;;;;;5408795;26;20272;-57
2024/04/11 01:03:54;;;;;;;0.10;0.10;;;24.50;44.30;;;;;;5379869;26;20282;-55
2024/04/11 01:06:26;;;;;;;0.00;0.00;;;24.50;44.30;;;;;;5372296;26;20593;-52
2024/04/11 01:09:00;;;;;;;0.03;0.03;;;24.50;44.30;;;;;;5373514;26;20579;-56
2024/04/11 01:11:29;;;;;;;0.03;0.03;;;24.50;44.40;;;;;;5402895;26;20283;-57
2024/04/11 01:14:01;;;;;;;0.10;0.10;;;24.60;44.60;;;;;;5415766;26;20233;-54
2024/04/11 01:16:30;;;;;;;0.00;0.00;;;24.60;44.70;;;;;;5449407;26;20216;-56
2024/04/11 01:19:05;;;;;;;0.00;0.00;;;24.60;44.90;;;;;;5447321;26;20260;-56
2024/04/11 01:21:38;;;;;;;0.00;0.00;;;24.60;44.90;;;;;;5412349;26;20224;-55
2024/04/11 01:24:13;;;;;;;0.00;0.00;;;24.60;45.00;;;;;;5413095;26;20326;-55
2024/04/11 01:26:43;;;;;;;0.00;0.00;;;24.70;45.10;;;;;;5426842;26;20754;-56
2024/04/11 01:29:15;;;;;;;0.00;0.00;;;24.70;45.30;;;;;;5448264;26;20288;-54
2024/04/11 01:31:46;;;;;;;0.10;0.10;;;24.70;45.40;;;;;;5447116;26;20237;-52
2024/04/11 01:34:19;;;;;;;0.00;0.00;;;24.70;45.40;;;;;;5410326;26;20233;-56
2024/04/11 01:36:49;;;;;;;0.00;0.00;;;24.70;45.50;;;;;;5412251;26;20222;-56
2024/04/11 01:39:25;;;;;;;0.00;0.00;;;24.80;45.70;;;;;;5411647;26;20739;-54
2024/04/11 01:41:54;;;;;;;0.00;0.00;;;24.80;45.80;;;;;;5415522;26;20565;-57
2024/04/11 01:44:27;;;;;;;0.00;0.00;;;24.80;45.80;;;;;;5445051;26;20593;-56
2024/04/11 01:46:57;;;;;;;0.00;0.00;;;24.90;45.90;;;;;;5412140;26;20633;-57
2024/04/11 01:49:30;;;;;;;0.10;0.10;;;24.80;45.90;;;;;;5413593;26;20732;-57
2024/04/11 01:51:59;;;;;;;0.00;0.00;;;24.90;45.90;;;;;;5412026;26;20578;-56
2024/04/11 01:54:35;;;;;;;0.00;0.00;;;24.80;45.90;;;;;;5411302;26;20615;-57
2024/04/11 01:57:04;;;;;;;0.00;0.00;;;24.90;46.00;;;;;;5432602;26;20235;-58
2024/04/11 01:59:37;;;;;;;0.00;0.00;;;24.90;46.00;;;;;;5411256;26;20636;-58
2024/04/11 02:02:08;;;;;;;0.00;0.00;;;24.90;46.00;;;;;;5409159;26;20233;-57
2024/04/11 02:04:40;;;;;;;0.00;0.00;;;24.90;46.00;;;;;;5375581;26;20277;-55
2024/04/11 02:07:09;;;;;;;0.00;0.00;;;24.90;46.10;;;;;;5376165;26;20234;-58
2024/04/11 02:09:45;;;;;;;0.00;0.00;;;24.90;46.10;;;;;;5382142;26;20283;-57
2024/04/11 02:12:14;;;;;;;0.00;0.00;;;25.00;46.10;;;;;;5409954;26;20228;-57
2024/04/11 02:14:46;;;;;;;0.00;0.00;;;25.00;46.10;;;;;;5412266;26;20221;-60
2024/04/11 02:17:16;;;;;;;0.00;0.00;;;25.00;46.20;;;;;;5410891;26;20701;-54
2024/04/11 02:19:48;;;;;;;0.00;0.00;;;25.00;46.20;;;;;;5412294;26;20823;-53
2024/04/11 02:22:18;;;;;;;0.00;0.00;;;25.00;46.20;;;;;;5487435;21;20259;-48
2024/04/11 02:24:53;;;;;;;0.00;0.00;;;25.00;46.30;;;;;;5483219;26;20350;-48
2024/04/11 02:27:23;;;;;;;0.00;0.00;;;25.00;46.30;;;;;;5482653;26;20219;-47
2024/04/11 02:29:56;;;;;;;0.00;0.00;;;25.00;46.30;;;;;;5482944;26;20311;-46
2024/04/11 02:32:27;;;;;;;0.00;0.00;;;25.00;46.40;;;;;;5436861;26;20229;-48
2024/04/11 02:35:05;;;;;;;0.00;0.00;;;25.00;47.00;;;;;;5447635;26;20280;-46
2024/04/11 02:37:34;;;;;;;0.00;0.00;;;25.00;46.40;;;;;;5445674;26;20305;-49
2024/04/11 02:40:11;;;;;;;0.00;0.00;;;25.00;46.50;;;;;;5445310;26;20270;-51
2024/04/11 02:42:40;;;;;;;0.00;0.00;;;25.10;46.60;;;;;;5422102;26;20225;-49
2024/04/11 02:45:14;;;;;;;0.00;0.00;;;25.10;46.70;;;;;;5410235;26;20221;-47
2024/04/11 02:47:44;;;;;;;0.00;0.00;;;25.10;46.70;;;;;;5409485;26;20225;-48
2024/04/11 02:50:20;;;;;;;0.00;0.00;;;25.10;46.70;;;;;;5426323;26;20247;-46
2024/04/11 02:52:49;;;;;;;0.00;0.00;;;25.10;46.70;;;;;;5447598;26;20262;-49
2024/04/11 02:55:24;;;;;;;0.00;0.00;;;25.10;46.80;;;;;;5446383;26;20268;-50
2024/04/11 02:57:53;;;;;;;0.00;0.00;;;25.10;46.80;;;;;;5446357;26;20219;-47
2024/04/11 03:00:26;;;;;;;0.00;0.00;;;25.10;46.80;;;;;;5424092;26;20233;-49
2024/04/11 03:02:55;;;;;;;0.00;0.00;;;25.10;47.10;;;;;;5430944;26;20592;-47
2024/04/11 03:05:29;;;;;;;0.00;0.00;;;25.10;46.80;;;;;;5450702;26;20325;-47
2024/04/11 03:07:58;;;;;;;0.00;0.00;;;25.10;46.90;;;;;;5452138;26;20341;-47
2024/04/11 03:10:33;;;;;;;0.00;0.00;;;25.10;46.90;;;;;;5451336;26;20300;-48
2024/04/11 03:13:03;;;;;;;0.00;0.00;;;25.20;46.90;;;;;;5450215;26;20779;-48
2024/04/11 03:15:35;;;;;;;0.00;0.00;;;25.20;47.00;;;;;;5450594;26;20232;-46
2024/04/11 03:18:04;;;;;;;0.00;0.00;;;25.20;47.00;;;;;;5447681;26;20224;-48
2024/04/11 03:20:37;;;;;;;0.00;0.00;;;25.20;47.00;;;;;;5465069;21;20257;-59
2024/04/11 03:23:06;;;;;;;0.00;0.00;;;25.20;47.10;;;;;;5487683;26;20223;-58
2024/04/11 03:25:41;;;;;;;0.00;0.00;;;25.20;47.20;;;;;;5487483;26;20312;-58
2024/04/11 03:28:10;;;;;;;0.00;0.00;;;25.20;47.20;;;;;;5487921;26;20743;-55
2024/04/11 03:30:43;;;;;;;0.00;0.00;;;25.20;47.20;;;;;;5487460;26;20298;-55
2024/04/11 03:33:13;;;;;;;0.00;0.00;;;25.20;47.90;;;;;;5487015;26;20794;-58
2024/04/11 03:35:45;;;;;;;0.00;0.00;;;25.20;47.30;;;;;;5485764;26;20257;-54
2024/04/11 03:38:14;;;;;;;0.00;0.00;;;25.30;47.40;;;;;;5487548;26;20219;-59
2024/04/11 03:41:00;;;;;;;0.00;0.00;;;25.20;47.10;;;;;;5487480;26;20291;-58
2024/04/11 03:43:33;;;;;;;0.00;0.00;;;25.30;47.00;;;;;;5487471;26;20253;-56
2024/04/11 03:46:18;;;;;;;0.00;0.00;;;25.30;46.90;;;;;;5486906;26;20266;-57
2024/04/11 03:48:51;;;;;;;0.00;0.00;;;25.20;46.90;;;;;;5488009;26;20219;-59
2024/04/11 03:51:24;;;;;;;0.00;0.00;;;25.30;47.10;;;;;;5487187;26;20721;-56
2024/04/11 03:53:55;;;;;;;0.00;0.00;;;25.30;47.20;;;;;;5481841;26;20704;-57
2024/04/11 03:56:32;;;;;;;0.00;0.00;;;25.30;47.20;;;;;;5481993;26;20232;-55
2024/04/11 03:59:01;;;;;;;0.00;0.00;;;25.30;47.40;;;;;;5482449;26;20314;-56
2024/04/11 04:01:33;;;;;;;0.00;0.00;;;25.30;47.50;;;;;;5453594;26;20779;-58
2024/04/11 04:04:04;;;;;;;0.10;0.10;;;25.30;47.60;;;;;;5478306;26;20697;-58
2024/04/11 04:06:36;;;;;;;0.00;0.00;;;25.30;47.70;;;;;;5481087;26;20642;-58
2024/04/11 04:09:08;;;;;;;0.00;0.00;;;25.20;47.70;;;;;;5481306;26;20283;-58
2024/04/11 04:11:44;;;;;;;0.00;0.00;;;25.20;47.80;;;;;;5480537;26;20304;-57
2024/04/11 04:14:14;;;;;;;0.00;0.00;;;25.20;47.90;;;;;;5444890;26;20688;-56
2024/04/11 04:16:46;;;;;;;0.00;0.00;;;25.20;48.00;;;;;;5446710;26;20220;-56
2024/04/11 04:19:16;;;;;;;0.00;0.00;;;25.20;47.90;;;;;;5461927;26;20215;-56
2024/04/11 04:21:48;;;;;;;0.00;0.00;;;25.30;47.90;;;;;;5496524;20;20304;-57
2024/04/11 04:24:17;;;;;;;0.05;0.05;;;25.20;47.70;;;;;;5481875;26;20735;-58
2024/04/11 04:26:53;;;;;;;0.00;0.00;;;25.30;47.70;;;;;;5480912;26;20691;-56
2024/04/11 04:29:22;;;;;;;0.00;0.00;;;25.30;47.80;;;;;;5482059;26;20223;-55
2024/04/11 04:31:54;;;;;;;0.00;0.00;;;25.30;47.80;;;;;;5480638;26;20281;-57
2024/04/11 04:34:25;;;;;;;0.00;0.00;;;25.30;47.80;;;;;;5482274;26;20225;-57
2024/04/11 04:36:57;;;;;;;0.00;0.00;;;25.30;47.80;;;;;;5444748;26;20582;-55
2024/04/11 04:39:31;;;;;;;0.00;0.00;;;25.30;47.70;;;;;;5480825;26;20665;-52
2024/04/11 04:42:07;;;;;;;0.00;0.00;;;25.30;47.70;;;;;;5480706;26;20338;-54
2024/04/11 04:44:37;;;;;;;0.00;0.00;;;25.30;47.70;;;;;;5482315;26;20266;-54
2024/04/11 04:47:16;;;;;;;0.00;0.00;;;25.30;47.70;;;;;;5482618;26;20699;-53
2024/04/11 04:49:48;;;;;;;0.00;0.00;;;25.30;48.30;;;;;;5483673;26;20257;-52
2024/04/11 04:52:21;;;;;;;0.00;0.00;;;25.30;47.60;;;;;;5483782;26;20367;-54
2024/04/11 04:54:51;;;;;;;0.00;0.00;;;25.30;47.60;;;;;;5483950;26;20790;-53
2024/04/11 04:57:26;;;;;;;0.00;0.00;;;25.30;47.70;;;;;;5485881;26;20702;-51
2024/04/11 04:59:55;;;;;;;0.00;0.00;;;25.30;47.70;;;;;;5485132;26;20292;-50
2024/04/11 05:02:28;;;;;;;0.00;0.00;;;25.30;47.70;;;;;;5484776;26;20419;-51
2024/04/11 05:04:57;;;;;;;0.00;0.00;;;25.30;47.90;;;;;;5484360;26;20278;-54
2024/04/11 05:07:30;;;;;;;0.00;0.00;;;25.30;47.90;;;;;;5485120;26;20283;-54
2024/04/11 05:09:59;;;;;;;0.00;0.00;;;25.30;47.90;;;;;;5485766;26;20211;-54
2024/04/11 05:12:43;;;;;;;0.00;0.00;;;25.30;47.90;;;;;;5484107;26;20223;-52
2024/04/11 05:15:12;;;;;;;0.00;0.00;;;25.30;47.90;;;;;;5485141;26;20219;-54
2024/04/11 05:17:45;;;;;;;0.00;0.00;;;25.30;47.90;;;;;;5482937;26;20766;-52
2024/04/11 05:20:21;;;;;;;0.00;0.00;;;25.30;48.00;;;;;;5485475;26;20216;-51
2024/04/11 05:22:53;;;;;;;0.00;0.00;;;25.40;48.00;;;;;;5483900;26;20214;-52
2024/04/11 05:25:22;;;;;;;0.00;0.00;;;25.40;48.00;;;;;;5484986;26;20211;-47
2024/04/11 05:27:58;;;;;;;0.00;0.00;;;25.40;48.00;;;;;;5481914;26;20273;-52
2024/04/11 05:30:27;;;;;;;0.00;0.00;;;25.40;48.00;;;;;;5482546;26;20231;-48
2024/04/11 05:32:59;;;;;;;0.00;0.00;;;25.40;48.00;;;;;;5483636;26;20298;-54
2024/04/11 05:35:29;;;;;;;0.00;0.00;;;25.40;48.00;;;;;;5483922;26;20262;-54
2024/04/11 05:38:01;;;;;;;0.00;0.00;;;25.40;48.00;;;;;;5484270;26;20215;-51
2024/04/11 05:40:32;;;;;;;0.00;0.00;;;25.40;48.00;;;;;;5484453;26;20211;-48
2024/04/11 05:43:08;;;;;;;0.00;0.00;;;25.40;48.00;;;;;;5483353;26;20215;-54
2024/04/11 05:45:37;;;;;;;0.00;0.00;;;25.40;48.00;;;;;;5483822;26;20269;-50
2024/04/11 05:48:10;;;;;;;0.00;0.00;;;25.40;47.90;;;;;;5482829;26;20226;-52
2024/04/11 05:50:40;;;;;;;0.00;0.00;;;25.40;47.90;;;;;;5483303;26;20269;-49
2024/04/11 05:53:14;;;;;;;0.00;0.00;;;25.40;48.00;;;;;;5484280;26;20235;-50
2024/04/11 05:55:43;;;;;;;0.00;0.00;;;25.40;48.00;;;;;;5484035;26;20682;-51
2024/04/11 05:58:19;;;;;;;0.00;0.00;;;25.40;48.00;;;;;;5482695;26;20680;-50
2024/04/11 06:00:49;;;;;;;0.00;0.00;;;25.40;48.20;;;;;;5483552;26;20227;-50
2024/04/11 06:03:21;;;;;;;0.00;0.00;;;25.40;48.30;;;;;;5484383;26;20581;-50
2024/04/11 06:05:51;;;;;;;0.00;0.00;;;25.40;48.40;;;;;;5483509;26;20211;-50
2024/04/11 06:08:23;;;;;;;0.00;0.00;;;25.40;48.40;;;;;;5484061;26;20315;-51
2024/04/11 06:10:56;;;;;;;0.00;0.00;;;25.40;48.40;;;;;;5484511;26;20265;-51
2024/04/11 06:13:28;;;;;;;0.00;0.00;;;25.40;48.50;;;;;;5482537;26;20223;-48
2024/04/11 06:16:01;;;;;;;0.00;0.00;;;25.40;48.40;;;;;;5479581;26;20239;-49
2024/04/11 06:18:31;;;;;;;0.00;0.00;;;25.40;48.40;;;;;;5482709;26;20257;-55
2024/04/11 06:21:04;;;;;;;0.00;0.00;;;25.40;48.30;;;;;;5498606;21;20277;-55
2024/04/11 06:23:35;;;;;;;0.00;0.00;;;25.40;48.40;;;;;;5482504;26;20283;-51
2024/04/11 06:26:13;;;;;;;0.00;0.00;;;25.40;48.40;;;;;;5482966;26;20254;-52
2024/04/11 06:28:45;;;;;;;0.00;0.00;;;25.40;48.40;;;;;;5475589;26;20744;-52
2024/04/11 06:31:18;;;;;;;0.00;0.00;;;25.40;48.40;;;;;;5446588;26;20328;-48
2024/04/11 06:33:47;;;;;;;0.00;0.00;;;25.40;48.40;;;;;;5475390;26;20566;-51
2024/04/11 06:36:21;;;;;;;0.00;0.00;;;25.40;48.40;;;;;;5483311;26;20215;-51
2024/04/11 06:38:51;;;;;;;0.00;0.00;;;25.40;48.50;;;;;;5482755;26;20278;-50
2024/04/11 06:41:24;;;;;;;0.00;0.00;;;25.30;48.40;;;;;;5482848;26;20227;-49
2024/04/11 06:43:56;;;;;;;0.00;0.00;;;25.30;48.40;;;;;;5482286;26;20551;-55
2024/04/11 06:46:29;;;;;;;0.00;0.00;;;25.30;48.40;;;;;;5483146;26;20266;-53
2024/04/11 06:48:58;;;;;;;0.00;0.00;;;25.30;48.40;;;;;;5482803;26;20272;-48
2024/04/11 06:51:31;;;;;;;0.00;0.00;;;25.40;48.50;;;;;;5473096;26;20278;-52
2024/04/11 06:54:03;;;;;;;0.00;0.00;;;25.30;48.40;;;;;;5477407;26;20632;-49
2024/04/11 06:56:32;;;;;;;0.00;0.00;;;25.30;48.40;;;;;;5483527;26;20691;-50
2024/04/11 06:59:10;;;;;;;0.00;0.00;;;25.40;48.40;;;;;;5482720;26;20219;-50
2024/04/11 07:01:39;;;;;;;0.05;0.05;;;25.40;48.50;;;;;;5482805;26;20743;-50
2024/04/11 07:04:13;;;;;;;0.00;0.00;;;25.30;48.30;;;;;;5482742;26;20249;-51
2024/04/11 07:06:43;;;;;;;0.00;0.00;;;25.30;48.40;;;;;;5481912;26;20228;-50
2024/04/11 07:09:16;;;;;;;0.00;0.00;;;25.30;48.40;;;;;;5478566;26;20312;-50
2024/04/11 07:11:48;;;;;;;0.00;0.00;;;25.30;48.40;;;;;;5487975;26;20231;-52
2024/04/11 07:14:23;;;;;;;0.00;0.00;;;25.30;48.40;;;;;;5487951;26;20219;-48
2024/04/11 07:16:56;;;;;;;0.00;0.00;;;25.30;48.40;;;;;;5487450;26;20223;-50
2024/04/11 07:19:29;;;;;;;0.00;0.00;;;25.30;48.40;;;;;;5487992;26;20219;-53
2024/04/11 07:21:58;;;;;;;0.00;0.00;;;25.30;48.40;;;;;;5487476;26;20711;-53
2024/04/11 07:24:30;;;;;;;0.00;0.00;;;25.30;48.40;;;;;;5486824;26;20338;-53
2024/04/11 07:27:00;;;;;;;0.00;0.00;;;25.30;48.40;;;;;;5460137;26;20216;-51
2024/04/11 07:29:35;;;;;;;0.00;0.00;;;25.30;48.40;;;;;;5451737;26;20220;-49
2024/04/11 07:32:06;;;;;;;0.00;0.00;;;25.20;48.40;;;;;;5454055;26;20227;-50
2024/04/11 07:34:38;;;;;;;0.00;0.00;;;25.30;48.30;;;;;;5488138;26;20298;-50
2024/04/11 07:37:09;;;;;;;0.00;0.00;;;25.20;48.20;;;;;;5487335;26;20274;-49
2024/04/11 07:39:41;;;;;;;0.00;0.00;;;25.20;48.20;;;;;;5487546;26;20234;-51
2024/04/11 07:42:19;;;;;;;0.00;0.00;;;25.20;48.20;;;;;;5487671;26;20227;-50
2024/04/11 07:44:54;;;;;;;0.05;0.05;;;25.20;48.20;;;;;;5487875;26;20226;-51
2024/04/11 07:47:29;;;;;;;0.00;0.00;;;25.20;48.20;;;;;;5487746;26;20302;-50
2024/04/11 07:50:02;;;;;;;0.00;0.00;;;25.20;48.20;;;;;;5481448;26;20235;-53
2024/04/11 07:52:31;;;;;;;0.00;0.00;;;25.20;48.20;;;;;;5450394;26;20366;-53
2024/04/11 07:55:03;;;;;;;0.00;0.00;;;25.10;48.20;;;;;;5450330;26;20345;-54
2024/04/11 07:57:32;;;;;;;0.00;0.00;;;25.10;48.20;;;;;;5451621;26;20216;-52
2024/04/11 08:00:20;;;;;;;0.00;0.00;;;25.10;48.20;;;;;;5450954;26;20267;-52
2024/04/11 08:02:49;;;;;;;0.00;0.00;;;25.20;48.20;;;;;;5464405;26;20211;-50
2024/04/11 08:05:22;;;;;;;0.00;0.00;;;25.10;48.10;;;;;;5487292;26;20262;-50
2024/04/11 08:07:51;;;;;;;0.00;0.00;;;25.10;48.10;;;;;;5486778;26;20270;-53
2024/04/11 08:10:27;;;;;;;0.00;0.00;;;25.10;48.00;;;;;;5486979;26;20667;-53
2024/04/11 08:12:57;;;;;;;0.00;0.00;;;25.10;48.00;;;;;;5486879;26;20695;-52
2024/04/11 08:15:32;;;;;;;0.00;0.00;;;25.10;48.10;;;;;;5487574;26;20219;-52
2024/04/11 08:18:03;;;;;;;0.00;0.00;;;25.10;48.10;;;;;;5486800;26;20303;-53
2024/04/11 08:20:35;;;;;;;0.00;0.00;;;25.10;48.00;;;;;;5486391;26;20226;-56
2024/04/11 08:23:08;;;;;;;0.00;0.00;;;25.00;48.00;;;;;;5487062;26;20220;-52
2024/04/11 08:25:40;;;;;;;0.00;0.00;;;25.10;48.10;;;;;;5487209;26;20226;-52
2024/04/11 08:28:11;;;;;;;0.00;0.00;;;25.10;48.10;;;;;;5487246;26;20373;-52
2024/04/11 08:30:48;;;;;;;0.00;0.00;;;25.00;48.00;;;;;;5487032;26;20219;-54
2024/04/11 08:33:20;;;;;;;0.00;0.00;;;25.00;48.00;;;;;;5486976;26;20219;-54
2024/04/11 08:35:53;;;;;;;0.00;0.00;;;25.00;48.10;;;;;;5481246;26;20219;-51
2024/04/11 08:38:23;;;;;;;0.00;0.00;;;25.00;48.10;;;;;;5487397;26;20219;-52
2024/04/11 08:40:57;;;;;;;0.00;0.00;;;25.00;48.10;;;;;;5487001;26;20322;-51
2024/04/11 08:43:28;;;;;;;0.00;0.00;;;25.00;48.10;;;;;;5486608;26;20294;-54
2024/04/11 08:46:06;;;;;;;0.00;0.00;;;25.00;48.10;;;;;;5480489;26;20231;-52
2024/04/11 08:48:35;;;;;;;0.00;0.00;;;25.00;48.10;;;;;;5485951;26;20223;-52
2024/04/11 08:51:16;;;;;;;0.08;0.08;;;24.90;48.10;;;;;;5486178;26;20231;-54
2024/04/11 08:53:47;;;;;;;0.00;0.00;;;24.90;48.10;;;;;;5486604;26;20266;-54
2024/04/11 08:56:20;;;;;;;0.00;0.00;;;24.90;48.10;;;;;;5486899;26;20219;-55
2024/04/11 08:58:50;;;;;;;0.00;0.00;;;24.90;48.10;;;;;;5486584;26;20741;-53
2024/04/11 09:01:29;;;;;;;0.00;0.00;;;24.90;48.70;;;;;;5482664;26;20235;-53
2024/04/11 09:03:58;;;;;;;0.00;0.00;;;24.90;48.10;;;;;;5480806;26;20215;-55
2024/04/11 09:06:31;;;;;;;0.00;0.00;;;24.80;48.10;;;;;;5485734;26;20289;-56
2024/04/11 09:09:06;;;;;;;0.00;0.00;;;24.80;48.10;;;;;;5482532;26;20489;-52
2024/04/11 09:11:41;;;;;;;0.00;0.00;;;24.90;48.20;;;;;;5484915;26;20270;-56
2024/04/11 09:14:13;;;;;;;0.00;0.00;;;24.80;48.10;;;;;;5485953;26;20250;-53
2024/04/11 09:16:48;;;;;;;0.00;0.00;;;24.80;48.20;;;;;;5485467;26;20231;-53
2024/04/11 09:19:22;;;;;;;0.00;0.00;;;24.80;48.20;;;;;;5485636;26;20221;-51
2024/04/11 09:21:54;;;;;;;0.00;0.00;;;24.80;48.30;;;;;;5485826;26;20259;-54
2024/04/11 09:24:24;;;;;;;0.00;0.00;;;24.80;48.30;;;;;;5485897;26;20294;-51
2024/04/11 09:26:59;;;;;;;0.00;0.00;;;24.80;48.30;;;;;;5485737;26;20284;-53
2024/04/11 09:29:29;;;;;;;0.00;0.00;;;24.70;48.30;;;;;;5485632;26;20241;-50
2024/04/11 09:32:06;;;;;;;0.00;0.00;;;24.70;48.30;;;;;;5485653;26;20231;-53
2024/04/11 09:34:40;;;;;;;0.00;0.00;;;24.80;48.40;;;;;;5489060;26;20219;-53
2024/04/11 09:37:15;;;;;;;0.00;0.00;;;24.70;48.40;;;;;;5466848;26;20284;-54
2024/04/11 09:39:49;;;;;;;0.00;0.00;;;24.70;48.40;;;;;;5453387;26;20282;-53
2024/04/11 09:42:25;;;;;;;0.00;0.00;;;24.70;48.30;;;;;;5453119;26;20730;-56
2024/04/11 09:44:55;;;;;;;0.00;0.00;;;24.70;48.40;;;;;;5453527;26;20262;-55
2024/04/11 09:47:32;;;;;;;0.00;0.00;;;24.70;48.30;;;;;;5452639;26;20280;-52
2024/04/11 09:50:04;;;;;;;0.00;0.00;;;24.70;48.30;;;;;;5453287;26;20251;-52
2024/04/11 09:52:37;;;;;;;0.00;0.00;;;24.70;48.30;;;;;;5452656;26;20774;-53
2024/04/11 09:55:08;;;;;;;0.00;0.00;;;24.70;48.40;;;;;;5461993;26;20578;-56
2024/04/11 09:57:43;;;;;;;0.00;0.00;;;24.60;48.30;;;;;;5479526;26;20715;-49
2024/04/11 10:00:42;;;;;;;0.00;0.00;;;24.60;48.40;;;;;;5483793;26;20231;-56
2024/04/11 10:03:14;;;;;;;0.00;0.00;;;24.60;48.50;;;;;;5472923;26;20283;-53
2024/04/11 10:05:46;;;;;;;0.08;0.08;;;24.60;48.60;;;;;;5447489;26;20268;-53
2024/04/11 10:08:27;;;;;;;0.00;0.00;;;24.60;48.70;;;;;;5447467;26;20220;-53
2024/04/11 10:11:03;;;;;;;0.00;0.00;;;24.60;48.90;;;;;;5479995;26;20235;-52
2024/04/11 10:13:41;;;;;;;0.00;0.00;;;24.60;48.90;;;;;;5484344;26;20249;-53
2024/04/11 10:16:21;;;;;;;0.00;0.00;;;24.60;49.10;;;;;;5483828;26;20361;-53
2024/04/11 10:19:04;;;;;;;0.00;0.00;;;24.60;49.10;;;;;;5484189;26;20842;-52
2024/04/11 10:21:35;;;;;;;0.00;0.00;;;24.60;49.10;;;;;;5483761;26;20266;-55
2024/04/11 10:24:17;;;;;;;0.00;0.00;;;24.60;49.20;;;;;;5463505;26;20228;-56
2024/04/11 10:26:48;;;;;;;0.00;0.00;;;24.50;49.40;;;;;;5446594;26;20667;-56
2024/04/11 10:29:26;;;;;;;0.00;0.00;;;24.60;49.40;;;;;;5460938;26;20231;-56
2024/04/11 10:31:58;;;;;;;0.00;0.00;;;24.60;49.40;;;;;;5483225;26;20234;-53
2024/04/11 10:34:45;;;;;;;0.00;0.00;;;24.50;49.40;;;;;;5482444;26;20242;-51
2024/04/11 10:37:16;;;;;;;0.00;0.00;;;24.50;49.40;;;;;;5482895;26;20227;-51
2024/04/11 10:39:54;;;;;;;0.00;0.00;;;24.50;49.60;;;;;;5482843;26;20215;-51
2024/04/11 10:42:31;;;;;;;0.00;0.00;;;24.50;49.80;;;;;;5477984;26;20228;-52
2024/04/11 10:45:04;;;;;;;0.00;0.00;;;24.50;49.80;;;;;;5482811;26;20211;-54
2024/04/11 10:47:36;;;;;;;0.00;0.00;;;24.50;50.00;;;;;;5482293;26;20286;-52
2024/04/11 10:50:14;;;;;;;0.00;0.00;;;24.50;50.00;;;;;;5482495;26;20223;-52
2024/04/11 10:52:45;;;;;;;0.00;0.00;;;24.50;49.90;;;;;;5483865;26;20295;-55
2024/04/11 10:55:28;;;;;;;0.00;0.00;;;24.50;50.00;;;;;;5483644;26;20964;-51
2024/04/11 10:58:09;;;;;;;0.10;0.10;;;24.50;49.90;;;;;;5483206;26;20215;-56
2024/04/11 11:03:40;;;;;;;0.00;0.00;;;24.50;50.00;;;;;;5483494;26;20586;-54
2024/04/11 11:06:24;;;;;;;0.00;0.00;;;24.50;50.90;;;;;;5482965;26;20236;-56
2024/04/11 11:08:59;;;;;;;0.00;0.00;;;24.50;51.90;;;;;;5479488;26;20385;-53
2024/04/11 11:11:30;;;;;;;0.00;0.00;;;24.50;52.50;;;;;;5482890;26;20319;-57
2024/04/11 11:14:02;;;;;;;0.00;0.00;;;24.50;53.00;;;;;;5483459;26;20215;-56
2024/04/11 11:16:32;;;;;;;0.00;0.00;;;24.50;53.40;;;;;;5446811;26;20850;-55
2024/04/11 11:19:04;;;;;;;0.00;0.00;;;24.50;53.70;;;;;;5447029;26;20236;-54
2024/04/11 11:21:40;;;;;;;0.00;0.00;;;24.50;54.00;;;;;;5446094;26;20233;-52
2024/04/11 11:24:14;;;;;;;0.00;0.00;;;24.50;54.10;;;;;;5446122;26;20271;-54
2024/04/11 11:26:47;;;;;;;0.10;0.10;;;24.50;54.30;;;;;;5446788;26;20319;-54
2024/04/11 11:29:25;;;;;;;0.00;0.00;;;24.50;54.40;;;;;;5466729;26;20327;-53
2024/04/11 11:32:01;;;;;;;0.00;0.00;;;24.50;54.30;;;;;;5483174;26;20219;-53
2024/04/11 11:34:35;;;;;;;0.00;0.00;;;24.50;54.30;;;;;;5482291;26;20314;-52
2024/04/11 11:37:12;;;;;;;0.00;0.00;;;24.50;54.40;;;;;;5458277;26;20232;-54
2024/04/11 11:39:50;;;;;;;0.00;0.00;;;24.50;54.60;;;;;;5447065;26;20619;-55
2024/04/11 11:42:23;;;;;;;0.00;0.00;;;24.50;54.70;;;;;;5481362;26;20231;-54
2024/04/11 11:45:16;;;;;;;0.00;0.00;;;24.50;54.40;;;;;;5484604;26;20666;-49
2024/04/11 11:47:47;;;;;;;0.00;0.00;;;24.50;54.20;;;;;;5487797;26;20220;-52
2024/04/11 11:50:35;;;;;;;0.00;0.00;;;24.40;53.60;;;;;;5487903;26;20223;-51
2024/04/11 11:55:57;;;;;;;0.00;0.00;;;24.30;53.00;;;;;;5449264;26;20271;-47
2024/04/11 11:58:29;;;;;;;0.00;0.00;;;24.30;52.80;;;;;;5451266;26;20734;-48
2024/04/11 12:01:19;;;;;;;0.00;0.00;;;24.30;52.70;;;;;;5451207;26;20571;-51
2024/04/11 12:03:55;;;;;;;0.00;0.00;;;24.30;52.60;;;;;;5479658;26;20695;-52
2024/04/11 12:06:33;;;;;;;0.00;0.00;;;24.30;52.40;;;;;;5480407;26;20230;-51
2024/04/11 12:09:10;;;;;;;0.03;0.03;;;24.40;52.30;;;;;;5470426;26;20344;-54
2024/04/11 12:14:34;;;;;;;0.00;0.00;;;24.30;52.10;;;;;;5464612;26;20243;-50
2024/04/11 12:17:04;;;;;;;0.10;0.10;;;24.30;52.00;;;;;;5470586;26;20238;-53
2024/04/11 12:19:37;;;;;;;0.00;0.00;;;24.30;51.90;;;;;;5468200;26;20286;-54
2024/04/11 12:22:11;;;;;;;0.00;0.00;;;24.30;51.80;;;;;;5490084;21;20362;-49
2024/04/11 12:24:50;;;;;;;0.00;0.00;;;24.30;51.80;;;;;;5486406;26;20327;-47
2024/04/11 12:27:23;;;;;;;0.00;0.00;;;24.30;51.70;;;;;;5483442;26;20277;-45
2024/04/11 12:29:58;;;;;;;0.00;0.00;;;24.30;51.60;;;;;;5450502;26;20228;-45
2024/04/11 12:32:30;;;;;;;0.00;0.00;;;24.30;51.50;;;;;;5458122;26;20227;-45
2024/04/11 12:35:02;;;;;;;0.00;0.00;;;24.30;51.50;;;;;;5485733;26;20223;-47
2024/04/11 12:37:34;;;;;;;0.00;0.00;;;24.30;51.40;;;;;;5486416;26;20283;-47
2024/04/11 12:40:13;;;;;;;0.00;0.00;;;24.30;51.40;;;;;;5486415;26;20692;-45
2024/04/11 12:42:44;;;;;;;0.00;0.00;;;24.20;51.30;;;;;;5486252;26;20603;-45
2024/04/11 12:45:18;;;;;;;0.00;0.00;;;24.20;51.20;;;;;;5486311;26;20211;-49
2024/04/11 12:47:49;;;;;;;0.00;0.00;;;24.20;51.20;;;;;;5486195;26;20207;-45
2024/04/11 12:50:24;;;;;;;0.00;0.00;;;24.20;51.10;;;;;;5486495;26;20231;-45
2024/04/11 12:52:56;;;;;;;0.00;0.00;;;24.20;51.00;;;;;;5485456;26;20310;-45
2024/04/11 12:55:32;;;;;;;0.00;0.00;;;24.20;51.00;;;;;;5486260;26;20257;-45
2024/04/11 12:58:06;;;;;;;0.00;0.00;;;24.20;50.90;;;;;;5486448;26;20218;-44
2024/04/11 13:00:43;;;;;;;0.00;0.00;;;24.10;50.80;;;;;;5486471;26;20217;-44
2024/04/11 13:03:19;;;;;;;0.00;0.00;;;24.10;50.80;;;;;;5486363;26;20564;-45
2024/04/11 13:05:57;;;;;;;0.00;0.00;;;24.10;50.70;;;;;;5486216;26;20616;-48
2024/04/11 13:08:29;;;;;;;0.00;0.00;;;24.10;50.70;;;;;;5489188;26;20552;-44
2024/04/11 13:11:10;;;;;;;0.00;0.00;;;24.10;50.70;;;;;;5490326;26;20262;-44
2024/04/11 13:13:39;;;;;;;0.03;0.03;;;24.10;50.70;;;;;;5488739;26;20747;-45
2024/04/11 13:16:13;;;;;;;0.00;0.00;;;24.00;50.70;;;;;;5489331;26;20250;-44
2024/04/11 13:18:47;;;;;;;0.10;0.10;;;24.00;50.60;;;;;;5453329;26;20278;-45
2024/04/11 13:21:31;;;;;;;0.00;0.00;;;24.00;51.20;;;;;;5475324;21;20265;-50
2024/04/11 13:24:00;;;;;;;0.00;0.00;;;23.90;50.60;;;;;;5489721;26;20266;-53
2024/04/11 13:26:39;;;;;;;0.00;0.00;;;23.90;50.60;;;;;;5489419;26;20246;-49